sensor_id;sensor_type;location;lat;lon;timestamp;P1;durP1;ratioP1;P2;durP2;ratioP2
10293;SDS011;5192;50.328;7.610;2023-02-15T00:00:06;50.07;;;25.03;;
10293;SDS011;5192;50.328;7.610;2023-02-15T00:02:37;52.57;;;24.43;;
10293;SDS011;5192;50.328;7.610;2023-02-15T00:05:05;53.37;;;27.90;;
10293;SDS011;5192;50.328;7.610;2023-02-15T00:07:32;46.63;;;23.60;;
10293;SDS011;5192;50.328;7.610;2023-02-15T00:09:58;50.17;;;24.67;;
10293;SDS011;5192;50.328;7.610;2023-02-15T00:12:25;50.53;;;25.77;;
10293;SDS011;5192;50.328;7.610;2023-02-15T00:14:52;45.00;;;24.33;;
10293;SDS011;5192;50.328;7.610;2023-02-15T00:17:20;43.43;;;23.70;;
10293;SDS011;5192;50.328;7.610;2023-02-15T00:19:47;41.50;;;22.83;;
10293;SDS011;5192;50.328;7.610;2023-02-15T00:22:14;45.60;;;22.23;;
10293;SDS011;5192;50.328;7.610;2023-02-15T00:24:40;43.43;;;23.17;;
10293;SDS011;5192;50.328;7.610;2023-02-15T00:27:08;40.73;;;21.37;;
10293;SDS011;5192;50.328;7.610;2023-02-15T00:29:35;40.77;;;21.67;;
10293;SDS011;5192;50.328;7.610;2023-02-15T00:32:02;44.03;;;23.20;;
10293;SDS011;5192;50.328;7.610;2023-02-15T00:34:29;41.77;;;23.90;;
10293;SDS011;5192;50.328;7.610;2023-02-15T00:36:55;43.07;;;23.57;;
10293;SDS011;5192;50.328;7.610;2023-02-15T00:39:27;45.87;;;22.27;;
10293;SDS011;5192;50.328;7.610;2023-02-15T00:41:54;45.57;;;24.13;;
10293;SDS011;5192;50.328;7.610;2023-02-15T00:44:21;40.40;;;21.37;;
10293;SDS011;5192;50.328;7.610;2023-02-15T00:46:49;44.17;;;24.17;;
10293;SDS011;5192;50.328;7.610;2023-02-15T00:49:16;40.83;;;22.57;;
10293;SDS011;5192;50.328;7.610;2023-02-15T00:51:41;37.67;;;20.23;;
10293;SDS011;5192;50.328;7.610;2023-02-15T00:54:09;43.47;;;22.13;;
10293;SDS011;5192;50.328;7.610;2023-02-15T00:56:37;40.10;;;21.40;;
10293;SDS011;5192;50.328;7.610;2023-02-15T00:59:05;38.13;;;21.07;;
10293;SDS011;5192;50.328;7.610;2023-02-15T01:01:32;41.93;;;23.37;;
10293;SDS011;5192;50.328;7.610;2023-02-15T01:03:58;39.30;;;19.77;;
10293;SDS011;5192;50.328;7.610;2023-02-15T01:06:26;36.67;;;19.90;;
10293;SDS011;5192;50.328;7.610;2023-02-15T01:08:54;36.67;;;21.27;;
10293;SDS011;5192;50.328;7.610;2023-02-15T01:11:21;40.00;;;21.30;;
10293;SDS011;5192;50.328;7.610;2023-02-15T01:13:57;36.60;;;19.03;;
10293;SDS011;5192;50.328;7.610;2023-02-15T01:16:25;33.53;;;18.17;;
10293;SDS011;5192;50.328;7.610;2023-02-15T01:18:54;36.90;;;20.90;;
10293;SDS011;5192;50.328;7.610;2023-02-15T01:21:20;34.30;;;18.87;;
10293;SDS011;5192;50.328;7.610;2023-02-15T01:23:49;35.43;;;19.30;;
10293;SDS011;5192;50.328;7.610;2023-02-15T01:26:17;35.43;;;20.77;;
10293;SDS011;5192;50.328;7.610;2023-02-15T01:28:44;37.17;;;20.10;;
10293;SDS011;5192;50.328;7.610;2023-02-15T01:31:13;35.67;;;19.27;;
10293;SDS011;5192;50.328;7.610;2023-02-15T01:33:45;36.87;;;18.80;;
10293;SDS011;5192;50.328;7.610;2023-02-15T01:36:14;37.13;;;18.37;;
10293;SDS011;5192;50.328;7.610;2023-02-15T01:38:40;34.23;;;18.73;;
10293;SDS011;5192;50.328;7.610;2023-02-15T01:41:07;32.23;;;18.00;;
10293;SDS011;5192;50.328;7.610;2023-02-15T01:43:51;29.43;;;15.43;;
10293;SDS011;5192;50.328;7.610;2023-02-15T01:46:22;30.93;;;16.93;;
10293;SDS011;5192;50.328;7.610;2023-02-15T01:51:54;32.73;;;18.10;;
10293;SDS011;5192;50.328;7.610;2023-02-15T01:54:23;33.03;;;17.20;;
10293;SDS011;5192;50.328;7.610;2023-02-15T01:57:03;31.77;;;16.63;;
10293;SDS011;5192;50.328;7.610;2023-02-15T01:59:43;30.33;;;15.93;;
10293;SDS011;5192;50.328;7.610;2023-02-15T02:02:18;28.40;;;15.80;;
10293;SDS011;5192;50.328;7.610;2023-02-15T02:04:50;30.77;;;16.97;;
10293;SDS011;5192;50.328;7.610;2023-02-15T02:07:21;29.67;;;17.43;;
10293;SDS011;5192;50.328;7.610;2023-02-15T02:09:52;31.73;;;16.37;;
10293;SDS011;5192;50.328;7.610;2023-02-15T02:12:18;32.63;;;18.23;;
10293;SDS011;5192;50.328;7.610;2023-02-15T02:14:47;32.93;;;17.07;;
10293;SDS011;5192;50.328;7.610;2023-02-15T02:20:14;31.50;;;17.90;;
10293;SDS011;5192;50.328;7.610;2023-02-15T02:37:19;32.53;;;16.87;;
10293;SDS011;5192;50.328;7.610;2023-02-15T02:40:01;26.97;;;15.87;;
10293;SDS011;5192;50.328;7.610;2023-02-15T02:43:01;27.27;;;14.83;;
10293;SDS011;5192;50.328;7.610;2023-02-15T02:46:17;26.47;;;15.07;;
10293;SDS011;5192;50.328;7.610;2023-02-15T02:48:42;27.93;;;15.60;;
10293;SDS011;5192;50.328;7.610;2023-02-15T02:51:10;29.20;;;17.23;;
10293;SDS011;5192;50.328;7.610;2023-02-15T02:53:38;25.27;;;15.53;;
10293;SDS011;5192;50.328;7.610;2023-02-15T02:56:11;24.17;;;13.80;;
10293;SDS011;5192;50.328;7.610;2023-02-15T02:59:21;32.20;;;17.13;;
10293;SDS011;5192;50.328;7.610;2023-02-15T03:01:52;28.43;;;15.33;;
10293;SDS011;5192;50.328;7.610;2023-02-15T03:04:35;30.93;;;16.70;;
10293;SDS011;5192;50.328;7.610;2023-02-15T03:07:09;28.60;;;16.83;;
10293;SDS011;5192;50.328;7.610;2023-02-15T03:09:54;25.27;;;14.93;;
10293;SDS011;5192;50.328;7.610;2023-02-15T03:12:24;28.57;;;15.93;;
10293;SDS011;5192;50.328;7.610;2023-02-15T03:15:05;26.83;;;15.03;;
10293;SDS011;5192;50.328;7.610;2023-02-15T03:17:37;25.87;;;14.97;;
10293;SDS011;5192;50.328;7.610;2023-02-15T03:20:21;25.07;;;13.93;;
10293;SDS011;5192;50.328;7.610;2023-02-15T03:25:46;25.43;;;14.33;;
10293;SDS011;5192;50.328;7.610;2023-02-15T03:28:23;24.43;;;14.47;;
10293;SDS011;5192;50.328;7.610;2023-02-15T03:31:00;27.13;;;14.83;;
10293;SDS011;5192;50.328;7.610;2023-02-15T03:33:29;24.33;;;14.17;;
10293;SDS011;5192;50.328;7.610;2023-02-15T03:36:03;25.63;;;14.23;;
10293;SDS011;5192;50.328;7.610;2023-02-15T03:42:06;24.30;;;13.47;;
10293;SDS011;5192;50.328;7.610;2023-02-15T03:47:43;24.27;;;14.43;;
10293;SDS011;5192;50.328;7.610;2023-02-15T03:53:18;23.33;;;13.67;;
10293;SDS011;5192;50.328;7.610;2023-02-15T03:55:54;22.67;;;12.80;;
10293;SDS011;5192;50.328;7.610;2023-02-15T03:58:22;24.00;;;13.90;;
10293;SDS011;5192;50.328;7.610;2023-02-15T04:01:14;24.90;;;14.63;;
10293;SDS011;5192;50.328;7.610;2023-02-15T04:04:19;22.50;;;14.30;;
10293;SDS011;5192;50.328;7.610;2023-02-15T04:06:48;21.30;;;13.07;;
10293;SDS011;5192;50.328;7.610;2023-02-15T04:09:15;20.53;;;12.70;;
10293;SDS011;5192;50.328;7.610;2023-02-15T04:12:01;23.83;;;13.67;;
10293;SDS011;5192;50.328;7.610;2023-02-15T04:14:27;21.33;;;12.90;;
10293;SDS011;5192;50.328;7.610;2023-02-15T04:17:12;22.83;;;13.00;;
10293;SDS011;5192;50.328;7.610;2023-02-15T04:19:40;22.63;;;13.10;;
10293;SDS011;5192;50.328;7.610;2023-02-15T04:22:27;20.70;;;12.83;;
10293;SDS011;5192;50.328;7.610;2023-02-15T04:25:12;23.40;;;12.73;;
10293;SDS011;5192;50.328;7.610;2023-02-15T04:27:38;20.33;;;12.43;;
10293;SDS011;5192;50.328;7.610;2023-02-15T04:30:08;22.83;;;12.60;;
10293;SDS011;5192;50.328;7.610;2023-02-15T04:32:37;21.07;;;12.20;;
10293;SDS011;5192;50.328;7.610;2023-02-15T04:35:05;20.63;;;12.30;;
10293;SDS011;5192;50.328;7.610;2023-02-15T04:37:33;22.73;;;13.07;;
10293;SDS011;5192;50.328;7.610;2023-02-15T04:40:02;23.70;;;13.40;;
10293;SDS011;5192;50.328;7.610;2023-02-15T04:42:33;22.33;;;12.07;;
10293;SDS011;5192;50.328;7.610;2023-02-15T04:45:00;22.23;;;12.97;;
10293;SDS011;5192;50.328;7.610;2023-02-15T04:47:26;22.47;;;12.80;;
10293;SDS011;5192;50.328;7.610;2023-02-15T04:49:54;19.73;;;12.53;;
10293;SDS011;5192;50.328;7.610;2023-02-15T04:52:21;21.23;;;12.27;;
10293;SDS011;5192;50.328;7.610;2023-02-15T04:54:49;23.47;;;13.57;;
10293;SDS011;5192;50.328;7.610;2023-02-15T04:57:16;21.23;;;12.97;;
10293;SDS011;5192;50.328;7.610;2023-02-15T04:59:42;22.73;;;12.90;;
10293;SDS011;5192;50.328;7.610;2023-02-15T05:02:13;22.73;;;13.70;;
10293;SDS011;5192;50.328;7.610;2023-02-15T05:04:38;21.67;;;13.03;;
10293;SDS011;5192;50.328;7.610;2023-02-15T05:07:06;22.10;;;12.73;;
10293;SDS011;5192;50.328;7.610;2023-02-15T05:09:33;22.50;;;13.73;;
10293;SDS011;5192;50.328;7.610;2023-02-15T05:11:59;21.60;;;13.37;;
10293;SDS011;5192;50.328;7.610;2023-02-15T05:14:26;20.17;;;12.27;;
10293;SDS011;5192;50.328;7.610;2023-02-15T05:16:55;20.30;;;12.23;;
10293;SDS011;5192;50.328;7.610;2023-02-15T05:19:26;19.87;;;13.37;;
10293;SDS011;5192;50.328;7.610;2023-02-15T05:21:52;20.50;;;12.90;;
10293;SDS011;5192;50.328;7.610;2023-02-15T05:24:19;22.33;;;12.93;;
10293;SDS011;5192;50.328;7.610;2023-02-15T05:27:05;18.40;;;12.13;;
10293;SDS011;5192;50.328;7.610;2023-02-15T05:29:50;19.43;;;11.87;;
10293;SDS011;5192;50.328;7.610;2023-02-15T05:32:19;18.70;;;12.03;;
10293;SDS011;5192;50.328;7.610;2023-02-15T05:34:46;20.50;;;12.77;;
10293;SDS011;5192;50.328;7.610;2023-02-15T05:37:11;19.70;;;12.63;;
10293;SDS011;5192;50.328;7.610;2023-02-15T05:39:39;20.20;;;12.47;;
10293;SDS011;5192;50.328;7.610;2023-02-15T05:42:06;18.77;;;12.23;;
10293;SDS011;5192;50.328;7.610;2023-02-15T05:44:33;21.37;;;12.47;;
10293;SDS011;5192;50.328;7.610;2023-02-15T05:46:59;22.00;;;13.20;;
10293;SDS011;5192;50.328;7.610;2023-02-15T05:49:28;19.73;;;12.27;;
10293;SDS011;5192;50.328;7.610;2023-02-15T05:51:57;19.43;;;11.80;;
10293;SDS011;5192;50.328;7.610;2023-02-15T05:54:25;20.17;;;12.80;;
10293;SDS011;5192;50.328;7.610;2023-02-15T05:56:53;19.23;;;11.83;;
10293;SDS011;5192;50.328;7.610;2023-02-15T05:59:20;21.93;;;12.67;;
10293;SDS011;5192;50.328;7.610;2023-02-15T06:01:48;20.37;;;12.80;;
10293;SDS011;5192;50.328;7.610;2023-02-15T06:04:14;19.73;;;12.23;;
10293;SDS011;5192;50.328;7.610;2023-02-15T06:06:42;19.83;;;12.23;;
10293;SDS011;5192;50.328;7.610;2023-02-15T06:09:07;20.70;;;13.07;;
10293;SDS011;5192;50.328;7.610;2023-02-15T06:11:35;20.77;;;12.73;;
10293;SDS011;5192;50.328;7.610;2023-02-15T06:14:01;21.67;;;12.87;;
10293;SDS011;5192;50.328;7.610;2023-02-15T06:16:30;22.47;;;12.83;;
10293;SDS011;5192;50.328;7.610;2023-02-15T06:18:58;21.83;;;12.80;;
10293;SDS011;5192;50.328;7.610;2023-02-15T06:21:25;23.50;;;13.67;;
10293;SDS011;5192;50.328;7.610;2023-02-15T06:23:54;19.90;;;12.37;;
10293;SDS011;5192;50.328;7.610;2023-02-15T06:26:21;20.20;;;12.20;;
10293;SDS011;5192;50.328;7.610;2023-02-15T06:28:48;22.43;;;13.67;;
10293;SDS011;5192;50.328;7.610;2023-02-15T06:31:16;22.87;;;13.30;;
10293;SDS011;5192;50.328;7.610;2023-02-15T06:33:43;21.33;;;12.23;;
10293;SDS011;5192;50.328;7.610;2023-02-15T06:36:11;22.23;;;13.53;;
10293;SDS011;5192;50.328;7.610;2023-02-15T06:38:38;22.60;;;12.50;;
10293;SDS011;5192;50.328;7.610;2023-02-15T06:41:04;23.57;;;14.37;;
10293;SDS011;5192;50.328;7.610;2023-02-15T06:43:30;21.30;;;13.10;;
10293;SDS011;5192;50.328;7.610;2023-02-15T06:45:57;23.77;;;13.87;;
10293;SDS011;5192;50.328;7.610;2023-02-15T06:48:24;22.37;;;13.40;;
10293;SDS011;5192;50.328;7.610;2023-02-15T06:50:50;22.03;;;13.33;;
10293;SDS011;5192;50.328;7.610;2023-02-15T06:53:18;21.57;;;13.37;;
10293;SDS011;5192;50.328;7.610;2023-02-15T06:55:47;25.30;;;13.87;;
10293;SDS011;5192;50.328;7.610;2023-02-15T06:58:14;20.07;;;12.87;;
10293;SDS011;5192;50.328;7.610;2023-02-15T07:00:43;22.70;;;13.93;;
10293;SDS011;5192;50.328;7.610;2023-02-15T07:03:12;20.63;;;13.27;;
10293;SDS011;5192;50.328;7.610;2023-02-15T07:05:39;24.90;;;14.00;;
10293;SDS011;5192;50.328;7.610;2023-02-15T07:08:05;25.23;;;13.63;;
10293;SDS011;5192;50.328;7.610;2023-02-15T07:10:32;23.23;;;13.60;;
10293;SDS011;5192;50.328;7.610;2023-02-15T07:12:58;24.37;;;14.20;;
10293;SDS011;5192;50.328;7.610;2023-02-15T07:15:24;24.97;;;13.73;;
10293;SDS011;5192;50.328;7.610;2023-02-15T07:17:51;23.53;;;13.53;;
10293;SDS011;5192;50.328;7.610;2023-02-15T07:20:22;23.07;;;13.40;;
10293;SDS011;5192;50.328;7.610;2023-02-15T07:22:50;22.23;;;13.93;;
10293;SDS011;5192;50.328;7.610;2023-02-15T07:25:16;23.03;;;14.33;;
10293;SDS011;5192;50.328;7.610;2023-02-15T07:27:43;24.50;;;13.80;;
10293;SDS011;5192;50.328;7.610;2023-02-15T07:30:12;23.17;;;14.30;;
10293;SDS011;5192;50.328;7.610;2023-02-15T07:32:41;23.80;;;14.40;;
10293;SDS011;5192;50.328;7.610;2023-02-15T07:35:27;23.00;;;13.43;;
10293;SDS011;5192;50.328;7.610;2023-02-15T07:37:54;24.00;;;13.20;;
10293;SDS011;5192;50.328;7.610;2023-02-15T07:40:21;20.57;;;12.63;;
10293;SDS011;5192;50.328;7.610;2023-02-15T07:42:49;21.70;;;13.30;;
10293;SDS011;5192;50.328;7.610;2023-02-15T07:45:20;21.57;;;13.43;;
10293;SDS011;5192;50.328;7.610;2023-02-15T07:47:47;22.37;;;13.67;;
10293;SDS011;5192;50.328;7.610;2023-02-15T07:50:14;21.30;;;13.20;;
10293;SDS011;5192;50.328;7.610;2023-02-15T07:52:40;21.80;;;13.47;;
10293;SDS011;5192;50.328;7.610;2023-02-15T07:55:08;21.60;;;14.03;;
10293;SDS011;5192;50.328;7.610;2023-02-15T07:57:42;22.90;;;13.67;;
10293;SDS011;5192;50.328;7.610;2023-02-15T08:00:10;22.27;;;14.10;;
10293;SDS011;5192;50.328;7.610;2023-02-15T08:02:39;20.30;;;12.47;;
10293;SDS011;5192;50.328;7.610;2023-02-15T08:05:05;22.87;;;13.90;;
10293;SDS011;5192;50.328;7.610;2023-02-15T08:07:31;21.00;;;12.60;;
10293;SDS011;5192;50.328;7.610;2023-02-15T08:09:59;20.77;;;13.17;;
10293;SDS011;5192;50.328;7.610;2023-02-15T08:12:29;19.93;;;12.33;;
10293;SDS011;5192;50.328;7.610;2023-02-15T08:14:54;19.60;;;13.53;;
10293;SDS011;5192;50.328;7.610;2023-02-15T08:17:25;22.63;;;14.77;;
10293;SDS011;5192;50.328;7.610;2023-02-15T08:19:54;21.30;;;12.97;;
10293;SDS011;5192;50.328;7.610;2023-02-15T08:22:22;22.10;;;14.23;;
10293;SDS011;5192;50.328;7.610;2023-02-15T08:24:52;21.60;;;13.97;;
10293;SDS011;5192;50.328;7.610;2023-02-15T08:27:19;19.47;;;13.37;;
10293;SDS011;5192;50.328;7.610;2023-02-15T08:29:53;23.70;;;14.33;;
10293;SDS011;5192;50.328;7.610;2023-02-15T08:32:21;20.33;;;13.17;;
10293;SDS011;5192;50.328;7.610;2023-02-15T08:34:49;20.17;;;13.40;;
10293;SDS011;5192;50.328;7.610;2023-02-15T08:37:16;24.37;;;15.87;;
10293;SDS011;5192;50.328;7.610;2023-02-15T08:39:44;20.53;;;12.90;;
10293;SDS011;5192;50.328;7.610;2023-02-15T08:42:11;23.17;;;13.80;;
10293;SDS011;5192;50.328;7.610;2023-02-15T08:44:37;21.03;;;13.17;;
10293;SDS011;5192;50.328;7.610;2023-02-15T08:47:03;22.73;;;13.47;;
10293;SDS011;5192;50.328;7.610;2023-02-15T08:49:31;21.43;;;14.20;;
10293;SDS011;5192;50.328;7.610;2023-02-15T08:51:59;19.53;;;13.53;;
10293;SDS011;5192;50.328;7.610;2023-02-15T08:54:27;21.87;;;14.63;;
10293;SDS011;5192;50.328;7.610;2023-02-15T08:56:54;21.67;;;13.97;;
10293;SDS011;5192;50.328;7.610;2023-02-15T08:59:25;22.67;;;13.97;;
10293;SDS011;5192;50.328;7.610;2023-02-15T09:01:54;20.10;;;13.40;;
10293;SDS011;5192;50.328;7.610;2023-02-15T09:04:20;21.87;;;13.80;;
10293;SDS011;5192;50.328;7.610;2023-02-15T09:06:47;21.57;;;13.30;;
10293;SDS011;5192;50.328;7.610;2023-02-15T09:09:16;20.23;;;13.40;;
10293;SDS011;5192;50.328;7.610;2023-02-15T09:11:46;21.50;;;13.60;;
10293;SDS011;5192;50.328;7.610;2023-02-15T09:14:17;21.03;;;13.03;;
10293;SDS011;5192;50.328;7.610;2023-02-15T09:16:48;20.27;;;13.27;;
10293;SDS011;5192;50.328;7.610;2023-02-15T09:19:18;20.83;;;13.57;;
10293;SDS011;5192;50.328;7.610;2023-02-15T09:21:48;20.57;;;13.77;;
10293;SDS011;5192;50.328;7.610;2023-02-15T09:24:16;19.97;;;13.23;;
10293;SDS011;5192;50.328;7.610;2023-02-15T09:26:45;19.23;;;13.17;;
10293;SDS011;5192;50.328;7.610;2023-02-15T09:29:17;19.60;;;12.50;;
10293;SDS011;5192;50.328;7.610;2023-02-15T09:31:45;19.20;;;12.57;;
10293;SDS011;5192;50.328;7.610;2023-02-15T09:34:17;17.70;;;12.57;;
10293;SDS011;5192;50.328;7.610;2023-02-15T09:36:44;18.60;;;12.63;;
10293;SDS011;5192;50.328;7.610;2023-02-15T09:39:17;18.13;;;12.83;;
10293;SDS011;5192;50.328;7.610;2023-02-15T09:48:19;18.23;;;13.60;;
10293;SDS011;5192;50.328;7.610;2023-02-15T09:57:27;19.90;;;12.83;;
10293;SDS011;5192;50.328;7.610;2023-02-15T10:00:36;15.47;;;11.10;;
10293;SDS011;5192;50.328;7.610;2023-02-15T10:03:30;19.23;;;12.53;;
10293;SDS011;5192;50.328;7.610;2023-02-15T10:09:28;17.23;;;12.17;;
10293;SDS011;5192;50.328;7.610;2023-02-15T10:15:35;15.97;;;11.40;;
10293;SDS011;5192;50.328;7.610;2023-02-15T10:21:29;17.07;;;12.53;;
10293;SDS011;5192;50.328;7.610;2023-02-15T10:27:12;17.70;;;12.53;;
10293;SDS011;5192;50.328;7.610;2023-02-15T10:51:05;15.00;;;11.70;;
10293;SDS011;5192;50.328;7.610;2023-02-15T11:02:17;15.17;;;11.00;;
10293;SDS011;5192;50.328;7.610;2023-02-15T11:08:21;15.00;;;11.77;;
10293;SDS011;5192;50.328;7.610;2023-02-15T11:10:54;13.97;;;11.07;;
10293;SDS011;5192;50.328;7.610;2023-02-15T11:13:29;16.57;;;12.00;;
10293;SDS011;5192;50.328;7.610;2023-02-15T11:16:16;15.53;;;11.37;;
10293;SDS011;5192;50.328;7.610;2023-02-15T11:19:35;14.07;;;12.10;;
10293;SDS011;5192;50.328;7.610;2023-02-15T11:21:57;16.03;;;12.03;;
10293;SDS011;5192;50.328;7.610;2023-02-15T11:24:29;16.20;;;12.10;;
10293;SDS011;5192;50.328;7.610;2023-02-15T11:27:03;16.27;;;12.33;;
10293;SDS011;5192;50.328;7.610;2023-02-15T11:32:37;17.00;;;12.30;;
10293;SDS011;5192;50.328;7.610;2023-02-15T11:35:18;14.97;;;11.70;;
10293;SDS011;5192;50.328;7.610;2023-02-15T11:46:32;16.60;;;12.60;;
10293;SDS011;5192;50.328;7.610;2023-02-15T11:48:59;15.73;;;11.67;;
10293;SDS011;5192;50.328;7.610;2023-02-15T11:51:29;15.83;;;11.50;;
10293;SDS011;5192;50.328;7.610;2023-02-15T11:53:55;15.20;;;12.00;;
10293;SDS011;5192;50.328;7.610;2023-02-15T11:56:22;15.50;;;11.60;;
10293;SDS011;5192;50.328;7.610;2023-02-15T12:01:44;13.67;;;11.47;;
10293;SDS011;5192;50.328;7.610;2023-02-15T12:07:19;13.67;;;10.27;;
10293;SDS011;5192;50.328;7.610;2023-02-15T12:12:26;13.33;;;10.43;;
10293;SDS011;5192;50.328;7.610;2023-02-15T12:15:03;13.80;;;11.53;;
10293;SDS011;5192;50.328;7.610;2023-02-15T12:17:52;13.50;;;10.57;;
10293;SDS011;5192;50.328;7.610;2023-02-15T12:20:28;12.97;;;11.07;;
10293;SDS011;5192;50.328;7.610;2023-02-15T12:25:42;12.47;;;10.63;;
10293;SDS011;5192;50.328;7.610;2023-02-15T12:30:52;13.63;;;10.77;;
10293;SDS011;5192;50.328;7.610;2023-02-15T12:33:31;12.23;;;10.17;;
10293;SDS011;5192;50.328;7.610;2023-02-15T12:41:38;12.90;;;10.03;;
10293;SDS011;5192;50.328;7.610;2023-02-15T12:44:32;13.10;;;10.17;;
10293;SDS011;5192;50.328;7.610;2023-02-15T12:50:04;11.90;;;9.83;;
10293;SDS011;5192;50.328;7.610;2023-02-15T12:53:22;10.50;;;9.37;;
10293;SDS011;5192;50.328;7.610;2023-02-15T12:55:55;11.57;;;9.73;;
10293;SDS011;5192;50.328;7.610;2023-02-15T12:58:28;11.67;;;9.77;;
10293;SDS011;5192;50.328;7.610;2023-02-15T13:06:31;10.80;;;9.23;;
10293;SDS011;5192;50.328;7.610;2023-02-15T13:09:14;13.77;;;10.53;;
10293;SDS011;5192;50.328;7.610;2023-02-15T13:12:38;12.80;;;10.03;;
10293;SDS011;5192;50.328;7.610;2023-02-15T13:14:48;11.17;;;9.60;;
10293;SDS011;5192;50.328;7.610;2023-02-15T13:17:19;11.87;;;10.10;;
10293;SDS011;5192;50.328;7.610;2023-02-15T13:19:57;12.40;;;10.50;;
10293;SDS011;5192;50.328;7.610;2023-02-15T13:22:32;11.80;;;10.30;;
10293;SDS011;5192;50.328;7.610;2023-02-15T13:25:14;11.20;;;9.70;;
10293;SDS011;5192;50.328;7.610;2023-02-15T13:27:55;12.40;;;10.20;;
10293;SDS011;5192;50.328;7.610;2023-02-15T13:30:27;13.07;;;10.23;;
10293;SDS011;5192;50.328;7.610;2023-02-15T13:33:02;10.80;;;9.67;;
10293;SDS011;5192;50.328;7.610;2023-02-15T13:35:35;12.23;;;10.03;;
10293;SDS011;5192;50.328;7.610;2023-02-15T13:41:09;11.97;;;10.23;;
10293;SDS011;5192;50.328;7.610;2023-02-15T13:43:45;10.63;;;9.53;;
10293;SDS011;5192;50.328;7.610;2023-02-15T13:46:45;11.13;;;9.40;;
10293;SDS011;5192;50.328;7.610;2023-02-15T14:15:59;12.93;;;10.37;;
10293;SDS011;5192;50.328;7.610;2023-02-15T14:18:46;10.90;;;9.60;;
10293;SDS011;5192;50.328;7.610;2023-02-15T14:21:54;11.30;;;9.97;;
10293;SDS011;5192;50.328;7.610;2023-02-15T14:30:20;10.97;;;9.70;;
10293;SDS011;5192;50.328;7.610;2023-02-15T14:33:04;12.90;;;10.10;;
10293;SDS011;5192;50.328;7.610;2023-02-15T14:35:34;12.00;;;10.40;;
10293;SDS011;5192;50.328;7.610;2023-02-15T14:46:58;14.30;;;11.43;;
10293;SDS011;5192;50.328;7.610;2023-02-15T14:49:42;13.33;;;11.20;;
10293;SDS011;5192;50.328;7.610;2023-02-15T14:52:10;12.47;;;11.17;;
10293;SDS011;5192;50.328;7.610;2023-02-15T15:05:34;12.77;;;10.87;;
10293;SDS011;5192;50.328;7.610;2023-02-15T15:08:19;14.03;;;11.47;;
10293;SDS011;5192;50.328;7.610;2023-02-15T15:10:52;12.43;;;11.00;;
10293;SDS011;5192;50.328;7.610;2023-02-15T15:19:11;13.57;;;11.80;;
10293;SDS011;5192;50.328;7.610;2023-02-15T15:22:04;13.33;;;11.50;;
10293;SDS011;5192;50.328;7.610;2023-02-15T15:50:15;14.20;;;11.83;;
10293;SDS011;5192;50.328;7.610;2023-02-15T15:52:46;15.53;;;11.93;;
10293;SDS011;5192;50.328;7.610;2023-02-15T15:55:17;15.07;;;11.80;;
10293;SDS011;5192;50.328;7.610;2023-02-15T15:57:46;16.33;;;12.40;;
10293;SDS011;5192;50.328;7.610;2023-02-15T16:00:23;15.13;;;11.83;;
10293;SDS011;5192;50.328;7.610;2023-02-15T16:03:14;16.77;;;12.77;;
10293;SDS011;5192;50.328;7.610;2023-02-15T16:05:59;15.87;;;12.50;;
10293;SDS011;5192;50.328;7.610;2023-02-15T16:08:27;18.37;;;13.83;;
10293;SDS011;5192;50.328;7.610;2023-02-15T16:11:14;17.57;;;13.87;;
10293;SDS011;5192;50.328;7.610;2023-02-15T16:13:44;17.00;;;14.17;;
10293;SDS011;5192;50.328;7.610;2023-02-15T16:16:12;16.67;;;13.77;;
10293;SDS011;5192;50.328;7.610;2023-02-15T16:18:46;16.70;;;14.10;;
10293;SDS011;5192;50.328;7.610;2023-02-15T16:21:17;18.17;;;13.93;;
10293;SDS011;5192;50.328;7.610;2023-02-15T16:24:10;17.00;;;14.20;;
10293;SDS011;5192;50.328;7.610;2023-02-15T16:30:16;17.10;;;13.63;;
10293;SDS011;5192;50.328;7.610;2023-02-15T16:32:43;18.53;;;12.77;;
10293;SDS011;5192;50.328;7.610;2023-02-15T16:35:18;17.87;;;14.13;;
10293;SDS011;5192;50.328;7.610;2023-02-15T16:37:48;18.90;;;13.80;;
10293;SDS011;5192;50.328;7.610;2023-02-15T16:43:16;17.53;;;13.67;;
10293;SDS011;5192;50.328;7.610;2023-02-15T16:45:47;20.07;;;14.70;;
10293;SDS011;5192;50.328;7.610;2023-02-15T16:48:18;21.27;;;15.67;;
10293;SDS011;5192;50.328;7.610;2023-02-15T16:50:53;19.80;;;15.47;;
10293;SDS011;5192;50.328;7.610;2023-02-15T16:53:23;18.80;;;13.57;;
10293;SDS011;5192;50.328;7.610;2023-02-15T16:55:53;18.63;;;14.83;;
10293;SDS011;5192;50.328;7.610;2023-02-15T16:58:41;20.10;;;15.27;;
10293;SDS011;5192;50.328;7.610;2023-02-15T17:01:11;21.53;;;15.40;;
10293;SDS011;5192;50.328;7.610;2023-02-15T17:03:40;22.13;;;15.83;;
10293;SDS011;5192;50.328;7.610;2023-02-15T17:06:25;20.20;;;16.30;;
10293;SDS011;5192;50.328;7.610;2023-02-15T17:08:53;21.03;;;16.60;;
10293;SDS011;5192;50.328;7.610;2023-02-15T17:11:33;23.23;;;16.47;;
10293;SDS011;5192;50.328;7.610;2023-02-15T17:14:19;21.93;;;15.17;;
10293;SDS011;5192;50.328;7.610;2023-02-15T17:17:07;22.03;;;16.10;;
10293;SDS011;5192;50.328;7.610;2023-02-15T17:19:50;23.83;;;16.33;;
10293;SDS011;5192;50.328;7.610;2023-02-15T17:22:24;22.00;;;16.20;;
10293;SDS011;5192;50.328;7.610;2023-02-15T17:25:00;23.83;;;17.77;;
10293;SDS011;5192;50.328;7.610;2023-02-15T17:27:29;22.87;;;16.67;;
10293;SDS011;5192;50.328;7.610;2023-02-15T17:30:12;21.10;;;15.87;;
10293;SDS011;5192;50.328;7.610;2023-02-15T17:32:56;20.13;;;15.53;;
10293;SDS011;5192;50.328;7.610;2023-02-15T17:35:32;22.30;;;16.20;;
10293;SDS011;5192;50.328;7.610;2023-02-15T17:38:16;22.00;;;16.57;;
10293;SDS011;5192;50.328;7.610;2023-02-15T17:40:44;23.30;;;15.90;;
10293;SDS011;5192;50.328;7.610;2023-02-15T17:43:10;22.27;;;16.53;;
10293;SDS011;5192;50.328;7.610;2023-02-15T17:45:40;22.27;;;16.40;;
10293;SDS011;5192;50.328;7.610;2023-02-15T17:48:22;21.43;;;17.63;;
10293;SDS011;5192;50.328;7.610;2023-02-15T17:51:03;23.43;;;15.87;;
10293;SDS011;5192;50.328;7.610;2023-02-15T17:53:33;26.10;;;16.40;;
10293;SDS011;5192;50.328;7.610;2023-02-15T17:56:00;24.33;;;17.20;;
10293;SDS011;5192;50.328;7.610;2023-02-15T17:58:36;23.83;;;17.67;;
10293;SDS011;5192;50.328;7.610;2023-02-15T18:01:04;24.90;;;17.30;;
10293;SDS011;5192;50.328;7.610;2023-02-15T18:03:54;21.63;;;16.27;;
10293;SDS011;5192;50.328;7.610;2023-02-15T18:06:41;21.73;;;16.27;;
10293;SDS011;5192;50.328;7.610;2023-02-15T18:09:28;24.20;;;17.43;;
10293;SDS011;5192;50.328;7.610;2023-02-15T18:15:04;26.03;;;16.33;;
10293;SDS011;5192;50.328;7.610;2023-02-15T18:17:37;24.50;;;18.47;;
10293;SDS011;5192;50.328;7.610;2023-02-15T18:22:55;23.53;;;17.17;;
10293;SDS011;5192;50.328;7.610;2023-02-15T18:25:24;25.73;;;18.37;;
10293;SDS011;5192;50.328;7.610;2023-02-15T18:27:51;24.73;;;17.87;;
10293;SDS011;5192;50.328;7.610;2023-02-15T18:30:21;22.87;;;17.63;;
10293;SDS011;5192;50.328;7.610;2023-02-15T18:32:48;22.70;;;15.97;;
10293;SDS011;5192;50.328;7.610;2023-02-15T18:35:29;23.10;;;15.80;;
10293;SDS011;5192;50.328;7.610;2023-02-15T18:37:58;23.40;;;16.60;;
10293;SDS011;5192;50.328;7.610;2023-02-15T18:40:27;24.57;;;16.73;;
10293;SDS011;5192;50.328;7.610;2023-02-15T18:42:53;26.20;;;18.57;;
10293;SDS011;5192;50.328;7.610;2023-02-15T18:48:09;28.90;;;18.97;;
10293;SDS011;5192;50.328;7.610;2023-02-15T18:50:35;29.27;;;20.07;;
10293;SDS011;5192;50.328;7.610;2023-02-15T18:53:02;25.33;;;18.07;;
10293;SDS011;5192;50.328;7.610;2023-02-15T18:55:31;25.93;;;19.17;;
10293;SDS011;5192;50.328;7.610;2023-02-15T18:58:00;30.03;;;20.30;;
10293;SDS011;5192;50.328;7.610;2023-02-15T19:03:11;26.03;;;18.07;;